Time;durP1;ratioP1;P1;durP2;ratioP2;P2;SDS_P1;SDS_P2;PMS_P1;PMS_P2;Temp;Humidity;BMP_temperature;BMP_pressure;BME280_temperature;BME280_humidity;BME280_pressure;Samples;Min_cycle;Max_cycle;Signal;HPM_P1;HPM_P2
2022/03/24 00:00:11;;;;;;;48.03;20.60;;;;;;;6.53;39.57;101203.53;5096430;28;20078;-79
2022/03/24 00:02:39;;;;;;;45.22;21.80;;;;;;;6.44;40.05;101208.22;5096642;28;20040;-79
2022/03/24 00:05:11;;;;;;;46.20;21.73;;;;;;;6.24;41.05;101212.28;5096350;28;20431;-79
2022/03/24 00:07:40;;;;;;;43.42;22.20;;;;;;;5.95;42.35;101204.25;5078507;28;20544;-77
2022/03/24 00:10:10;;;;;;;46.13;22.95;;;;;;;5.81;42.98;101201.06;5096170;28;20059;-79
2022/03/24 00:12:40;;;;;;;46.85;21.23;;;;;;;5.69;43.32;101187.22;5096342;28;20123;-79
2022/03/24 00:15:09;;;;;;;46.03;20.83;;;;;;;5.87;42.43;101191.16;5096273;28;20044;-79
2022/03/24 00:17:37;;;;;;;46.53;21.23;;;;;;;5.95;41.95;101180.41;5096378;28;20072;-80
2022/03/24 00:20:07;;;;;;;48.83;21.88;;;;;;;5.97;41.90;101187.41;5095532;28;20477;-80
2022/03/24 00:22:37;;;;;;;51.05;22.63;;;;;;;5.85;42.44;101178.88;5096066;28;20040;-79
2022/03/24 00:25:06;;;;;;;45.78;22.60;;;;;;;5.87;42.12;101172.63;5095887;28;20046;-78
2022/03/24 00:27:34;;;;;;;48.80;23.02;;;;;;;5.95;41.81;101169.81;5095958;28;20051;-79
2022/03/24 00:30:03;;;;;;;45.47;23.48;;;;;;;6.18;41.66;101169.22;5096138;28;20456;-80
2022/03/24 00:32:31;;;;;;;55.55;23.58;;;;;;;6.02;42.05;101169.63;5096213;28;20048;-79
2022/03/24 00:34:59;;;;;;;50.50;23.80;;;;;;;5.85;42.55;101170.94;5095785;28;20044;-78
2022/03/24 00:37:27;;;;;;;50.67;23.67;;;;;;;5.66;42.75;101160.81;5095662;28;20047;-78
2022/03/24 00:40:00;;;;;;;46.35;21.95;;;;;;;5.66;42.85;101166.13;5095512;28;20044;-78
2022/03/24 00:42:28;;;;;;;45.87;22.40;;;;;;;5.41;43.86;101163.22;5095362;28;20110;-77
2022/03/24 00:44:57;;;;;;;40.35;20.02;;;;;;;5.37;43.62;101163.31;5095677;28;20324;-77
2022/03/24 00:47:25;;;;;;;46.50;21.70;;;;;;;5.33;44.64;101157.25;5095186;28;20082;-78
2022/03/24 00:49:54;;;;;;;44.28;21.27;;;;;;;5.30;44.85;101156.44;5095674;28;20040;-78
2022/03/24 00:52:22;;;;;;;48.25;22.80;;;;;;;5.10;45.50;101149.84;5095094;28;20044;-77
2022/03/24 00:54:50;;;;;;;47.38;22.08;;;;;;;5.05;45.85;101157.03;5095650;28;20044;-78
2022/03/24 00:57:20;;;;;;;46.15;22.40;;;;;;;5.03;45.97;101153.56;5095324;28;20089;-77
2022/03/24 00:59:51;;;;;;;46.38;21.33;;;;;;;5.07;45.91;101154.34;5095603;28;20047;-79
2022/03/24 01:02:19;;;;;;;47.10;21.42;;;;;;;4.90;46.61;101152.06;5094903;28;20501;-80
2022/03/24 01:04:48;;;;;;;46.75;22.30;;;;;;;4.87;46.38;101154.78;5095249;28;20119;-79
2022/03/24 01:07:16;;;;;;;39.20;19.77;;;;;;;4.93;45.60;101146.75;5095056;28;20040;-79
2022/03/24 01:09:44;;;;;;;37.60;19.58;;;;;;;5.16;44.10;101144.41;5094981;28;20173;-80
2022/03/24 01:12:13;;;;;;;44.33;20.75;;;;;;;5.29;43.39;101128.25;5095027;28;20089;-79
2022/03/24 01:14:44;;;;;;;46.70;20.92;;;;;;;5.54;43.25;101139.97;5077673;28;20044;-79
2022/03/24 01:17:15;;;;;;;43.35;20.75;;;;;;;5.45;44.32;101129.63;5094613;28;20477;-79
2022/03/24 01:19:44;;;;;;;39.67;20.23;;;;;;;5.34;45.07;101134.31;5095234;28;20044;-78
2022/03/24 01:22:12;;;;;;;43.53;20.98;;;;;;;5.05;45.20;101127.94;5094994;28;20052;-78
2022/03/24 01:24:41;;;;;;;38.65;19.70;;;;;;;4.84;45.24;101120.50;5095087;28;20397;-78
2022/03/24 01:27:11;;;;;;;35.67;18.83;;;;;;;5.00;44.43;101121.00;5094722;28;20448;-78
2022/03/24 01:29:40;;;;;;;37.00;19.27;;;;;;;4.98;44.89;101113.13;5095082;28;20044;-82
2022/03/24 01:32:10;;;;;;;41.40;20.67;;;;;;;4.88;45.18;101114.22;5094896;28;20058;-81
2022/03/24 01:34:39;;;;;;;41.67;20.00;;;;;;;4.88;44.92;101109.81;5095058;28;20040;-81
2022/03/24 01:37:07;;;;;;;44.20;21.23;;;;;;;5.02;45.71;101116.53;5094917;28;20122;-79
2022/03/24 01:39:37;;;;;;;38.45;19.13;;;;;;;5.00;45.64;101111.28;5094926;28;20043;-79
2022/03/24 01:42:06;;;;;;;40.10;19.63;;;;;;;4.81;45.91;101115.28;5094749;28;20047;-79
2022/03/24 01:44:35;;;;;;;42.25;19.63;;;;;;;4.76;46.49;101115.38;5094489;28;20497;-81
2022/03/24 01:47:05;;;;;;;42.78;19.65;;;;;;;4.47;47.14;101112.53;5094312;28;20127;-81
2022/03/24 01:49:37;;;;;;;39.08;19.00;;;;;;;4.37;47.41;101103.91;5093957;28;20044;-81
2022/03/24 01:52:08;;;;;;;41.50;19.42;;;;;;;4.33;47.38;101112.78;5093947;28;20048;-83
2022/03/24 01:54:38;;;;;;;36.85;19.55;;;;;;;4.36;47.30;101104.81;5094481;28;20115;-78
2022/03/24 01:57:08;;;;;;;41.20;19.73;;;;;;;4.29;48.13;101100.56;5094552;28;20535;-78
2022/03/24 01:59:37;;;;;;;42.15;19.95;;;;;;;4.21;48.35;101091.94;5094295;28;20075;-79
2022/03/24 02:02:05;;;;;;;43.88;20.20;;;;;;;4.08;48.79;101101.88;5094393;28;20428;-78
2022/03/24 02:04:36;;;;;;;40.30;19.90;;;;;;;4.03;48.89;101096.69;5093681;28;20040;-79
2022/03/24 02:07:05;;;;;;;42.25;20.15;;;;;;;3.98;48.89;101090.63;5094097;28;20485;-79
2022/03/24 02:09:34;;;;;;;39.28;19.40;;;;;;;4.05;48.13;101096.63;5093916;28;20127;-81
2022/03/24 02:12:05;;;;;;;40.83;19.55;;;;;;;4.03;48.69;101091.41;5094111;28;20134;-77
2022/03/24 02:14:33;;;;;;;41.92;19.40;;;;;;;3.98;48.71;101090.63;5094082;28;20078;-78
2022/03/24 02:17:02;;;;;;;44.08;19.75;;;;;;;3.98;49.16;101093.28;5094231;28;20068;-80
2022/03/24 02:19:30;;;;;;;40.50;19.30;;;;;;;3.92;49.13;101093.38;5075460;28;20044;-80
2022/03/24 02:22:09;;;;;;;38.47;20.02;;;;;;;3.82;49.81;101094.47;5093560;28;20056;-78
2022/03/24 02:24:37;;;;;;;39.13;19.55;;;;;;;3.86;49.98;101101.44;5093706;28;20036;-78
2022/03/24 02:27:06;;;;;;;38.47;19.80;;;;;;;3.84;50.29;101099.69;5093868;28;20058;-79
2022/03/24 02:29:36;;;;;;;39.53;18.90;;;;;;;3.82;49.66;101090.94;5093530;28;20070;-79
2022/03/24 02:32:07;;;;;;;40.65;20.60;;;;;;;3.92;50.57;101096.03;5093840;28;20071;-81
2022/03/24 02:34:47;;;;;;;38.28;19.27;;;;;;;3.93;50.72;101096.88;5093309;28;20044;-79
2022/03/24 02:37:19;;;;;;;38.92;19.80;;;;;;;3.88;51.36;101099.63;5093316;28;20501;-78
2022/03/24 02:39:50;;;;;;;42.85;20.48;;;;;;;3.86;51.25;101096.16;5093805;28;20040;-78
2022/03/24 02:42:22;;;;;;;45.03;20.67;;;;;;;3.76;51.73;101093.69;5093538;28;20455;-79
2022/03/24 02:44:53;;;;;;;40.75;20.05;;;;;;;3.74;51.94;101099.00;5093638;28;20067;-78
2022/03/24 02:47:21;;;;;;;41.00;19.35;;;;;;;3.65;52.33;101104.44;5093433;28;20040;-78
2022/03/24 02:49:52;;;;;;;42.22;20.10;;;;;;;3.80;51.99;101103.31;5093615;28;20036;-77
2022/03/24 02:52:21;;;;;;;41.83;20.52;;;;;;;3.86;52.12;101098.78;5093215;28;20043;-78
2022/03/24 02:54:49;;;;;;;38.00;19.48;;;;;;;3.86;51.55;101096.16;5093220;28;20100;-75
2022/03/24 02:57:18;;;;;;;40.80;20.15;;;;;;;3.85;50.65;101090.88;5093137;28;20044;-76
2022/03/24 02:59:47;;;;;;;43.95;20.80;;;;;;;3.78;50.80;101087.50;5093400;28;20044;-77
2022/03/24 03:02:18;;;;;;;39.30;19.58;;;;;;;3.71;51.71;101086.75;5074907;28;20047;-78
2022/03/24 03:04:49;;;;;;;41.85;20.13;;;;;;;3.66;52.30;101091.22;5093388;28;20040;-78
2022/03/24 03:07:20;;;;;;;42.60;20.33;;;;;;;3.69;52.17;101083.28;5093014;28;20051;-77
2022/03/24 03:09:50;;;;;;;40.45;20.05;;;;;;;3.67;52.48;101085.06;5093420;28;20044;-78
2022/03/24 03:12:19;;;;;;;44.10;20.13;;;;;;;3.69;52.57;101085.91;5092628;28;20040;-78
2022/03/24 03:14:47;;;;;;;40.30;20.88;;;;;;;3.51;53.31;101088.00;5093260;28;20085;-79
2022/03/24 03:17:16;;;;;;;39.47;20.67;;;;;;;3.40;53.17;101091.72;5093090;28;20481;-78
2022/03/24 03:19:46;;;;;;;37.58;19.27;;;;;;;3.56;52.13;101083.50;5093165;28;20040;-77
2022/03/24 03:22:15;;;;;;;41.78;19.67;;;;;;;3.69;51.25;101082.41;5093371;28;20051;-78
2022/03/24 03:24:53;;;;;;;44.50;21.23;;;;;;;3.63;51.87;101085.16;5093301;28;20047;-78
2022/03/24 03:27:21;;;;;;;42.78;20.33;;;;;;;3.56;52.95;101076.47;5092550;28;20451;-78
2022/03/24 03:29:49;;;;;;;41.38;19.95;;;;;;;3.49;52.88;101074.00;5093079;28;20485;-78
2022/03/24 03:32:19;;;;;;;43.35;19.48;;;;;;;3.41;53.25;101079.41;5092659;28;20127;-78
2022/03/24 03:34:48;;;;;;;35.22;20.00;;;;;;;3.30;53.48;101073.44;5093237;28;20040;-79
2022/03/24 03:37:17;;;;;;;41.28;20.33;;;;;;;3.32;53.78;101072.50;5092942;28;20086;-78
2022/03/24 03:39:45;;;;;;;39.28;20.25;;;;;;;3.23;54.41;101066.53;5093021;28;20052;-78
2022/03/24 03:42:16;;;;;;;42.40;20.33;;;;;;;3.12;55.38;101066.72;5093058;28;20101;-78
2022/03/24 03:44:44;;;;;;;39.33;19.70;;;;;;;3.06;55.41;101072.06;5093038;28;20047;-78
2022/03/24 03:47:12;;;;;;;39.30;18.95;;;;;;;3.07;55.36;101065.91;5093052;28;20127;-79
2022/03/24 03:49:41;;;;;;;41.13;20.67;;;;;;;3.03;55.86;101058.94;5092708;28;20040;-78
2022/03/24 03:52:26;;;;;;;43.55;19.75;;;;;;;3.02;55.48;101065.13;5092410;28;20093;-78
2022/03/24 03:54:54;;;;;;;38.05;19.42;;;;;;;2.96;55.26;101068.72;5092933;28;20122;-78
2022/03/24 03:57:24;;;;;;;45.17;21.20;;;;;;;2.99;55.51;101067.78;5092302;28;20408;-78
2022/03/24 03:59:53;;;;;;;43.83;20.67;;;;;;;3.03;54.76;101069.50;5093132;28;20048;-78
2022/03/24 04:02:21;;;;;;;41.00;21.30;;;;;;;3.11;55.06;101075.53;5092267;28;20036;-78
2022/03/24 04:04:50;;;;;;;42.25;20.45;;;;;;;3.07;55.26;101065.91;5092718;28;20043;-79
2022/03/24 04:07:18;;;;;;;49.28;20.35;;;;;;;3.08;55.74;101070.28;5092784;28;20119;-81
2022/03/24 04:09:47;;;;;;;39.60;19.67;;;;;;;3.06;55.69;101069.44;5092573;28;20083;-81
2022/03/24 04:12:15;;;;;;;42.25;20.52;;;;;;;3.02;55.50;101067.75;5092281;28;20044;-82
2022/03/24 04:14:45;;;;;;;45.28;22.08;;;;;;;3.02;54.95;101070.41;5094542;28;20048;-82
2022/03/24 04:17:13;;;;;;;48.92;21.45;;;;;;;3.09;54.49;101069.41;5096148;28;20050;-83
2022/03/24 04:19:42;;;;;;;45.47;21.73;;;;;;;3.05;54.88;101067.69;5096061;28;20041;-82
2022/03/24 04:22:10;;;;;;;45.42;20.98;;;;;;;2.98;54.67;101063.41;5095938;28;20477;-80
2022/03/24 04:24:38;;;;;;;44.78;21.55;;;;;;;2.96;55.12;101062.56;5095899;28;20048;-80
2022/03/24 04:27:07;;;;;;;49.90;21.48;;;;;;;2.91;54.62;101059.16;5095956;28;20151;-79
2022/03/24 04:29:35;;;;;;;53.45;21.92;;;;;;;2.94;54.70;101059.09;5095893;28;20129;-79
2022/03/24 04:32:07;;;;;;;47.72;21.08;;;;;;;2.93;54.88;101050.31;5096006;28;20068;-79
2022/03/24 04:34:35;;;;;;;34.80;19.73;;;;;;;2.91;55.65;101048.63;5095849;28;20089;-80
2022/03/24 04:37:04;;;;;;;43.17;19.67;;;;;;;2.95;55.06;101051.16;5095963;28;20113;-81
2022/03/24 04:39:33;;;;;;;44.55;20.27;;;;;;;3.13;54.06;101052.63;5095708;28;20118;-80
2022/03/24 04:42:01;;;;;;;39.65;20.00;;;;;;;3.09;54.28;101053.59;5095662;28;20062;-79
2022/03/24 04:44:30;;;;;;;41.55;20.35;;;;;;;2.94;53.70;101053.84;5095231;28;20044;-79
2022/03/24 04:46:59;;;;;;;45.65;20.30;;;;;;;2.83;54.69;101052.25;5095830;28;20058;-79
2022/03/24 04:49:28;;;;;;;48.78;20.40;;;;;;;2.98;54.24;101053.75;5095148;28;20110;-79
2022/03/24 04:51:57;;;;;;;42.50;20.63;;;;;;;2.89;54.42;101051.25;5095775;28;20044;-79
2022/03/24 04:54:25;;;;;;;39.33;21.15;;;;;;;2.95;54.07;101050.28;5095415;28;20044;-80
2022/03/24 04:56:54;;;;;;;41.70;20.63;;;;;;;3.06;53.82;101053.63;5095602;28;20036;-79
2022/03/24 04:59:22;;;;;;;46.35;20.58;;;;;;;3.11;53.67;101051.78;5095429;28;20074;-79
2022/03/24 05:01:50;;;;;;;50.10;23.27;;;;;;;3.26;52.88;101045.38;5095163;28;20032;-80
2022/03/24 05:04:18;;;;;;;56.30;25.55;;;;;;;3.50;51.72;101052.84;5095115;28;20112;-78
2022/03/24 05:06:48;;;;;;;53.88;23.60;;;;;;;3.28;53.11;101060.28;5095203;28;20048;-78
2022/03/24 05:09:16;;;;;;;50.15;22.40;;;;;;;3.20;53.18;101050.78;5095458;28;20040;-78
2022/03/24 05:11:47;;;;;;;49.92;23.33;;;;;;;3.26;53.19;101055.91;5077278;28;20048;-80
2022/03/24 05:14:15;;;;;;;50.55;23.45;;;;;;;3.30;53.05;101053.22;5095248;28;20397;-79
2022/03/24 05:16:43;;;;;;;51.35;25.83;;;;;;;3.40;52.80;101052.16;5094771;28;20071;-78
2022/03/24 05:19:13;;;;;;;48.60;23.58;;;;;;;3.50;52.63;101049.34;5095194;28;20044;-76
2022/03/24 05:21:41;;;;;;;40.63;23.98;;;;;;;3.54;52.51;101045.75;5094794;28;20059;-79
2022/03/24 05:24:10;;;;;;;53.97;25.15;;;;;;;3.61;52.17;101040.31;5095122;28;20074;-79
2022/03/24 05:26:40;;;;;;;56.13;24.77;;;;;;;3.61;52.35;101039.47;5094673;28;20101;-78
2022/03/24 05:29:08;;;;;;;57.08;25.67;;;;;;;3.62;52.78;101043.84;5094854;28;20056;-77
2022/03/24 05:31:37;;;;;;;62.17;25.63;;;;;;;3.71;52.13;101043.66;5094334;28;20040;-77
2022/03/24 05:34:06;;;;;;;52.45;23.63;;;;;;;4.00;50.93;101041.31;5094902;28;20068;-77
2022/03/24 05:36:34;;;;;;;44.97;21.88;;;;;;;4.04;50.89;101036.81;5094390;28;20047;-77
2022/03/24 05:39:04;;;;;;;51.28;24.45;;;;;;;4.06;50.67;101040.31;5094952;28;20040;-77
2022/03/24 05:41:34;;;;;;;52.10;23.92;;;;;;;4.07;51.02;101038.56;5094093;28;20109;-79
2022/03/24 05:44:05;;;;;;;49.47;23.13;;;;;;;4.02;51.05;101041.28;5094386;28;20051;-79
2022/03/24 05:46:46;;;;;;;;;;;;;;;4.08;51.14;101042.94;5094536;28;20771;-79
2022/03/24 05:49:16;;;;;;;45.85;22.63;;;;;;;4.13;51.24;101038.41;5094203;28;19990;-78
2022/03/24 05:51:45;;;;;;;50.78;23.40;;;;;;;4.35;50.93;101039.69;5094262;28;20044;-78
2022/03/24 05:54:16;;;;;;;47.83;24.77;;;;;;;4.57;50.39;101046.22;5094596;28;20047;-78
2022/03/24 05:56:47;;;;;;;51.58;25.33;;;;;;;4.72;50.09;101041.47;5094189;28;20047;-79
2022/03/24 05:59:16;;;;;;;54.15;25.20;;;;;;;4.87;50.02;101035.84;5094158;28;20042;-78
2022/03/24 06:01:47;;;;;;;50.53;25.80;;;;;;;5.00;49.78;101045.19;5093950;28;20383;-79
2022/03/24 06:04:18;;;;;;;52.75;26.23;;;;;;;5.14;49.41;101040.44;5094253;28;20435;-78
2022/03/24 06:06:46;;;;;;;51.50;24.08;;;;;;;5.39;48.63;101039.78;5093658;28;20040;-78
2022/03/24 06:09:14;;;;;;;51.95;24.73;;;;;;;5.56;48.27;101034.94;5093859;28;20067;-78
2022/03/24 06:11:43;;;;;;;44.50;22.55;;;;;;;5.78;47.64;101034.34;5093459;28;20123;-78
2022/03/24 06:14:13;;;;;;;44.35;23.13;;;;;;;5.98;47.24;101024.06;5093853;28;20036;-79
2022/03/24 06:16:42;;;;;;;43.53;23.10;;;;;;;6.20;46.88;101030.50;5093487;28;20075;-79
2022/03/24 06:19:11;;;;;;;47.55;22.65;;;;;;;6.41;46.29;101030.75;5093742;28;20097;-78
2022/03/24 06:21:39;;;;;;;46.17;21.75;;;;;;;6.69;45.76;101034.28;5093514;28;20060;-78
2022/03/24 06:24:08;;;;;;;42.17;21.55;;;;;;;6.85;45.59;101018.72;5093903;28;20064;-80
2022/03/24 06:26:39;;;;;;;39.97;20.15;;;;;;;7.11;44.49;101020.53;5093562;28;20044;-79
2022/03/24 06:29:11;;;;;;;45.78;19.60;;;;;;;7.20;44.30;101019.34;5093417;28;20131;-78
2022/03/24 06:31:41;;;;;;;41.95;19.52;;;;;;;7.32;43.78;101024.22;5093699;28;20539;-78
2022/03/24 06:34:10;;;;;;;41.92;19.63;;;;;;;7.57;43.04;101019.81;5075684;28;20061;-78
2022/03/24 06:36:38;;;;;;;39.92;20.30;;;;;;;8.06;41.93;101023.31;5092701;28;20481;-78
2022/03/24 06:39:07;;;;;;;44.97;21.17;;;;;;;8.28;41.39;101018.91;5093863;28;20394;-77
2022/03/24 06:41:36;;;;;;;40.97;21.33;;;;;;;8.30;41.06;101021.53;5093126;28;20048;-78
2022/03/24 06:44:06;;;;;;;42.72;21.65;;;;;;;8.49;40.76;101027.00;5092092;28;20123;-79
2022/03/24 06:46:35;;;;;;;49.78;22.67;;;;;;;8.47;40.84;101023.56;5091584;28;20040;-79
2022/03/24 06:49:06;;;;;;;38.85;22.17;;;;;;;8.55;40.52;101025.00;5092130;28;20048;-78
2022/03/24 06:51:35;;;;;;;44.28;22.92;;;;;;;8.65;40.37;101014.84;5091764;28;20036;-79
2022/03/24 06:54:05;;;;;;;42.40;22.80;;;;;;;8.80;39.80;101024.03;5091639;28;20043;-80
2022/03/24 06:56:34;;;;;;;42.42;22.45;;;;;;;8.97;39.69;101023.31;5091245;28;20060;-79
2022/03/24 06:59:02;;;;;;;48.42;23.35;;;;;;;9.25;38.86;101023.03;5091742;28;20071;-81
2022/03/24 07:01:30;;;;;;;43.22;21.77;;;;;;;9.36;38.72;101023.44;5089288;28;20094;-75
2022/03/24 07:03:59;;;;;;;45.65;21.80;;;;;;;9.50;38.02;101012.19;5073504;28;20049;-75
2022/03/24 07:06:29;;;;;;;47.05;21.33;;;;;;;9.61;38.01;101009.94;5091424;28;20548;-76
2022/03/24 07:08:57;;;;;;;43.83;21.75;;;;;;;9.51;38.32;101004.13;5091809;28;20129;-75
2022/03/24 07:11:26;;;;;;;39.47;22.00;;;;;;;9.56;38.40;101006.63;5091443;28;20068;-80
2022/03/24 07:13:54;;;;;;;46.45;23.02;;;;;;;9.43;38.44;101003.59;5091473;28;20122;-78
2022/03/24 07:16:24;;;;;;;40.05;22.10;;;;;;;9.51;38.62;101005.94;5091924;28;20534;-82
2022/03/24 07:18:52;;;;;;;41.38;22.50;;;;;;;9.54;38.47;101004.00;5089305;28;20048;-81
2022/03/24 07:21:20;;;;;;;40.92;22.50;;;;;;;9.52;38.72;100995.22;5091639;28;20056;-76
2022/03/24 07:23:51;;;;;;;40.05;21.17;;;;;;;9.73;38.03;100998.72;5088839;28;20040;-79
2022/03/24 07:26:19;;;;;;;51.50;22.98;;;;;;;9.79;38.10;100986.94;5092377;28;20098;-79
2022/03/24 07:28:48;;;;;;;42.38;21.40;;;;;;;9.92;38.29;100986.28;5091554;28;20435;-79
2022/03/24 07:31:19;;;;;;;39.00;21.20;;;;;;;10.15;37.21;100989.72;5091916;28;20493;-78
2022/03/24 07:33:50;;;;;;;;;;;;;;;10.19;37.31;100991.28;5091128;28;20036;-78
2022/03/24 07:36:22;;;;;;;42.10;19.88;;;;;;;10.51;36.55;100992.44;5092061;28;20038;-73
2022/03/24 07:38:52;;;;;;;39.40;19.48;;;;;;;10.91;34.96;100995.88;5088936;28;20047;-73
2022/03/24 07:41:21;;;;;;;42.22;20.70;;;;;;;11.05;34.55;100996.03;5092587;28;20048;-73
2022/03/24 07:43:50;;;;;;;38.35;21.17;;;;;;;11.07;34.72;100986.13;5092463;28;20047;-74
2022/03/24 07:46:19;;;;;;;45.05;21.73;;;;;;;10.91;35.12;100987.84;5092514;28;20151;-74
2022/03/24 07:48:48;;;;;;;40.20;20.95;;;;;;;10.84;35.74;100985.47;5093571;28;20074;-74
2022/03/24 07:51:18;;;;;;;35.28;19.27;;;;;;;11.15;33.81;100983.94;5096784;28;20064;-74
2022/03/24 07:53:59;;;;;;;35.22;20.42;;;;;;;11.19;34.29;100980.16;5096557;28;20043;-74
2022/03/24 07:56:28;;;;;;;35.17;21.15;;;;;;;11.15;34.54;100981.28;5096931;28;20040;-74
2022/03/24 07:58:57;;;;;;;45.50;21.38;;;;;;;11.16;35.09;100985.66;5096095;28;20044;-74
2022/03/24 08:01:28;;;;;;;37.72;20.08;;;;;;;11.20;34.94;100981.06;5096254;28;20052;-74
2022/03/24 08:03:58;;;;;;;37.97;20.58;;;;;;;11.28;34.44;100984.16;5096138;28;20105;-74
2022/03/24 08:06:28;;;;;;;35.70;19.95;;;;;;;11.59;33.96;100978.13;5096311;28;20048;-74
2022/03/24 08:08:58;;;;;;;33.58;18.10;;;;;;;11.79;33.47;100977.91;5096078;28;20122;-80
2022/03/24 08:11:27;;;;;;;28.98;17.65;;;;;;;12.28;32.01;100978.78;5096194;28;20070;-79
2022/03/24 08:13:57;;;;;;;28.67;17.05;;;;;;;12.50;31.68;100975.78;5095499;28;20102;-80
2022/03/24 08:16:26;;;;;;;28.90;17.38;;;;;;;12.73;31.24;100976.25;5095949;28;20130;-78
2022/03/24 08:18:55;;;;;;;32.58;18.23;;;;;;;12.85;31.16;100967.53;5077696;28;20955;-78
2022/03/24 08:21:24;;;;;;;29.80;16.45;;;;;;;12.69;31.65;100967.56;5095851;28;20091;-77
2022/03/24 08:23:52;;;;;;;36.65;18.83;;;;;;;12.52;31.85;100976.53;5095554;28;20098;-79
2022/03/24 08:26:22;;;;;;;35.80;17.48;;;;;;;12.74;31.21;100973.53;5095596;28;20036;-74
2022/03/24 08:28:57;;;;;;;38.85;17.58;;;;;;;12.82;31.36;100967.69;5095219;28;20123;-75
2022/03/24 08:31:26;;;;;;;35.25;18.77;;;;;;;12.77;31.40;100969.78;5095336;28;20062;-76
2022/03/24 08:33:55;;;;;;;25.23;14.27;;;;;;;13.22;28.13;100962.69;5095283;28;20047;-76
2022/03/24 08:36:24;;;;;;;20.20;11.27;;;;;;;14.05;26.05;100962.00;5077687;28;20048;-75
2022/03/24 08:38:52;;;;;;;29.10;12.88;;;;;;;14.23;26.73;100968.03;5096087;28;20048;-76
2022/03/24 08:41:22;;;;;;;19.05;11.55;;;;;;;14.02;26.19;100967.59;5095998;28;20040;-73
2022/03/24 08:43:50;;;;;;;24.23;11.20;;;;;;;14.14;25.38;100966.78;5077393;28;20083;-75
2022/03/24 08:46:24;;;;;;;15.10;9.88;;;;;;;14.55;24.81;100965.97;5095464;28;20048;-75
2022/03/24 08:48:54;;;;;;;17.70;9.20;;;;;;;14.93;23.91;100959.88;5095468;28;20040;-75
2022/03/24 08:51:23;;;;;;;14.63;8.95;;;;;;;14.94;23.21;100961.59;5095573;28;20067;-75
2022/03/24 08:53:52;;;;;;;17.88;8.40;;;;;;;15.04;23.32;100957.34;5095352;28;20103;-75
2022/03/24 08:56:22;;;;;;;11.05;8.10;;;;;;;15.29;23.19;100957.41;5095655;28;20051;-75
2022/03/24 08:58:51;;;;;;;20.38;9.52;;;;;;;15.41;23.01;100953.00;5095128;28;20040;-75
2022/03/24 09:01:21;;;;;;;15.02;8.95;;;;;;;15.42;22.96;100952.03;5095173;28;20535;-75
2022/03/24 09:03:51;;;;;;;12.20;8.20;;;;;;;15.33;22.97;100953.53;5095384;28;20377;-76
2022/03/24 09:06:21;;;;;;;18.90;8.82;;;;;;;15.53;22.65;100949.44;5095464;28;20557;-75
2022/03/24 09:08:50;;;;;;;15.15;8.25;;;;;;;15.67;22.25;100941.31;5095042;28;20123;-75
2022/03/24 09:11:19;;;;;;;14.32;8.82;;;;;;;15.73;22.44;100943.59;5095358;28;20044;-75
2022/03/24 09:13:49;;;;;;;16.33;8.27;;;;;;;15.66;22.49;100949.50;5094894;28;20105;-76
2022/03/24 09:16:17;;;;;;;17.10;9.32;;;;;;;15.74;22.17;100947.16;5095355;28;20040;-75
2022/03/24 09:18:45;;;;;;;15.43;9.25;;;;;;;15.77;22.46;100948.75;5077139;28;20444;-76
2022/03/24 09:21:14;;;;;;;18.20;8.35;;;;;;;16.12;22.10;100957.00;5095075;28;20056;-75
2022/03/24 09:23:42;;;;;;;20.42;9.40;;;;;;;16.26;21.76;100960.41;5094867;28;20444;-76
2022/03/24 09:26:12;;;;;;;13.82;8.77;;;;;;;16.15;21.57;100946.88;5094836;28;20127;-75
2022/03/24 09:28:59;;;;;;;15.85;8.98;;;;;;;16.02;21.89;100951.41;5094801;28;20135;-75
2022/03/24 09:31:27;;;;;;;15.07;8.38;;;;;;;16.37;21.80;100951.53;5095010;28;20044;-75
2022/03/24 09:33:56;;;;;;;16.33;8.48;;;;;;;16.57;21.16;100950.91;5094423;28;20093;-76
2022/03/24 09:36:25;;;;;;;15.10;8.30;;;;;;;16.57;21.07;100952.75;5094441;28;20044;-75
2022/03/24 09:38:54;;;;;;;13.77;8.57;;;;;;;16.47;21.32;100955.28;5094113;28;20132;-76
2022/03/24 09:41:26;;;;;;;13.50;8.80;;;;;;;16.58;21.36;100944.56;5094503;28;20452;-75
2022/03/24 09:43:55;;;;;;;15.23;8.38;;;;;;;16.83;20.73;100948.16;5094232;28;20443;-75
2022/03/24 09:46:28;;;;;;;14.60;8.93;;;;;;;16.80;21.14;100954.66;5094678;28;20044;-75
2022/03/24 09:48:58;;;;;;;15.60;8.85;;;;;;;16.99;21.09;100942.47;5093300;28;20040;-76
2022/03/24 09:51:27;;;;;;;14.35;8.85;;;;;;;16.80;21.16;100943.88;5093594;28;20040;-75
2022/03/24 09:53:56;;;;;;;15.38;9.07;;;;;;;17.16;21.00;100937.50;5092860;28;20036;-75
2022/03/24 09:56:25;;;;;;;15.73;8.98;;;;;;;17.35;20.72;100936.06;5092950;28;20493;-76
2022/03/24 09:58:53;;;;;;;15.75;8.40;;;;;;;17.23;20.73;100947.81;5093006;28;20040;-76
2022/03/24 10:01:21;;;;;;;15.65;8.40;;;;;;;17.35;20.57;100939.63;5093438;28;20115;-76
2022/03/24 10:04:05;;;;;;;14.02;7.85;;;;;;;17.45;20.41;100924.44;5093481;28;20044;-76
2022/03/24 10:06:36;;;;;;;15.38;8.13;;;;;;;17.40;20.10;100937.44;5093808;28;20044;-76
2022/03/24 10:09:05;;;;;;;15.00;7.65;;;;;;;17.57;20.02;100919.97;5093582;28;20073;-75
2022/03/24 10:11:35;;;;;;;13.65;7.75;;;;;;;17.68;20.06;100930.75;5093073;28;20489;-75
2022/03/24 10:14:08;;;;;;;14.75;8.43;;;;;;;17.72;19.96;100926.84;5093919;28;20114;-75
2022/03/24 10:16:45;;;;;;;13.65;8.10;;;;;;;17.74;20.03;100921.31;5094108;28;20040;-75
2022/03/24 10:19:18;;;;;;;13.95;8.25;;;;;;;17.90;19.53;100927.22;5093747;28;20068;-75
2022/03/24 10:21:49;;;;;;;13.68;7.97;;;;;;;17.94;19.57;100914.34;5093498;28;20052;-76
2022/03/24 10:24:19;;;;;;;13.57;7.97;;;;;;;17.94;19.39;100914.34;5093563;28;20119;-75
2022/03/24 10:26:49;;;;;;;15.70;7.28;;;;;;;18.00;19.23;100914.72;5093688;28;20044;-76
2022/03/24 10:29:22;;;;;;;14.18;8.13;;;;;;;18.02;19.21;100917.28;5093369;28;20048;-75
2022/03/24 10:31:55;;;;;;;12.18;7.70;;;;;;;17.97;19.15;100920.38;5093535;28;20051;-75
2022/03/24 10:34:32;;;;;;;10.57;7.45;;;;;;;18.25;19.11;100910.03;5093744;28;20140;-75
2022/03/24 10:37:04;;;;;;;14.18;7.72;;;;;;;18.22;19.21;100902.16;5093444;28;20400;-75
2022/03/24 10:39:33;;;;;;;13.40;7.13;;;;;;;18.10;18.95;100906.72;5093539;28;20063;-75
2022/03/24 10:42:20;;;;;;;9.52;5.88;;;;;;;18.45;18.44;100903.84;5093260;28;20284;-75
2022/03/24 10:45:17;;;;;;;12.60;7.57;;;;;;;18.51;19.10;100897.91;5093017;28;20422;-75
2022/03/24 10:47:50;;;;;;;15.88;7.20;;;;;;;18.50;19.04;100900.75;5093366;28;20127;-75
2022/03/24 10:50:39;;;;;;;17.17;8.10;;;;;;;18.55;19.17;100895.81;5093415;28;20097;-75
2022/03/24 10:53:11;;;;;;;13.50;7.32;;;;;;;18.59;18.32;100891.88;5092848;28;20044;-75
2022/03/24 10:56:01;;;;;;;15.38;7.63;;;;;;;18.33;19.29;100893.16;5093030;28;20036;-75
2022/03/24 10:58:35;;;;;;;12.23;7.10;;;;;;;18.55;18.26;100882.31;5093193;28;20370;-75
2022/03/24 11:01:06;;;;;;;12.20;7.47;;;;;;;18.70;18.44;100880.19;5092923;28;20044;-75
2022/03/24 11:03:35;;;;;;;14.38;8.20;;;;;;;18.62;18.43;100888.03;5093203;28;20119;-75
2022/03/24 11:06:12;;;;;;;17.50;8.00;;;;;;;18.78;18.78;100889.38;5092835;28;20055;-75
2022/03/24 11:08:42;;;;;;;13.32;8.73;;;;;;;18.62;18.83;100878.09;5093247;28;20101;-75
2022/03/24 11:11:13;;;;;;;12.57;7.30;;;;;;;18.89;18.43;100885.75;5092306;28;20048;-75
2022/03/24 11:13:48;;;;;;;14.23;7.80;;;;;;;18.80;18.42;100871.16;5092777;28;20108;-75
2022/03/24 11:16:20;;;;;;;15.88;8.70;;;;;;;18.83;18.05;100876.34;5092511;28;20156;-75
2022/03/24 11:18:50;;;;;;;14.32;8.27;;;;;;;18.89;18.43;100872.25;5092576;28;20048;-79
2022/03/24 11:21:25;;;;;;;15.05;7.60;;;;;;;18.94;18.31;100869.16;5092262;28;20106;-75
2022/03/24 11:23:54;;;;;;;11.63;7.88;;;;;;;19.07;18.54;100859.84;5096890;28;20040;-75
2022/03/24 11:26:24;;;;;;;14.50;8.32;;;;;;;19.06;18.58;100870.81;5098569;28;20086;-75
2022/03/24 11:28:55;;;;;;;14.32;8.57;;;;;;;19.05;18.40;100866.38;5098971;28;20449;-76